sensor_id;sensor_type;location;lat;lon;timestamp;P1;durP1;ratioP1;P2;durP2;ratioP2
64684;SDS011;51109;47.414;18.954;2023-07-30T00:02:24;3.55;;;2.30;;
64684;SDS011;51109;47.414;18.954;2023-07-30T00:04:50;2.00;;;1.70;;
64684;SDS011;51109;47.414;18.954;2023-07-30T00:07:17;2.38;;;2.00;;
64684;SDS011;51109;47.414;18.954;2023-07-30T00:09:43;2.58;;;2.38;;
64684;SDS011;51109;47.414;18.954;2023-07-30T00:12:09;2.17;;;1.98;;
64684;SDS011;51109;47.414;18.954;2023-07-30T00:14:35;2.60;;;2.15;;
64684;SDS011;51109;47.414;18.954;2023-07-30T00:17:01;3.88;;;1.80;;
64684;SDS011;51109;47.414;18.954;2023-07-30T00:19:28;4.25;;;2.20;;
64684;SDS011;51109;47.414;18.954;2023-07-30T00:21:54;2.85;;;1.88;;
64684;SDS011;51109;47.414;18.954;2023-07-30T00:24:20;4.20;;;2.00;;
64684;SDS011;51109;47.414;18.954;2023-07-30T00:26:45;6.78;;;1.90;;
64684;SDS011;51109;47.414;18.954;2023-07-30T00:29:11;2.78;;;2.30;;
64684;SDS011;51109;47.414;18.954;2023-07-30T00:31:37;2.53;;;2.10;;
64684;SDS011;51109;47.414;18.954;2023-07-30T00:34:03;1.83;;;1.60;;
64684;SDS011;51109;47.414;18.954;2023-07-30T00:36:29;2.17;;;1.85;;
64684;SDS011;51109;47.414;18.954;2023-07-30T00:38:55;3.83;;;1.98;;
64684;SDS011;51109;47.414;18.954;2023-07-30T00:41:21;3.97;;;2.75;;
64684;SDS011;51109;47.414;18.954;2023-07-30T00:43:47;2.17;;;1.98;;
64684;SDS011;51109;47.414;18.954;2023-07-30T00:46:13;2.83;;;2.33;;
64684;SDS011;51109;47.414;18.954;2023-07-30T00:48:39;4.35;;;2.45;;
64684;SDS011;51109;47.414;18.954;2023-07-30T00:51:05;3.90;;;2.05;;
64684;SDS011;51109;47.414;18.954;2023-07-30T00:53:33;2.50;;;2.20;;
64684;SDS011;51109;47.414;18.954;2023-07-30T00:55:59;3.55;;;2.53;;
64684;SDS011;51109;47.414;18.954;2023-07-30T00:58:25;2.97;;;2.10;;
64684;SDS011;51109;47.414;18.954;2023-07-30T01:00:52;2.60;;;2.05;;
64684;SDS011;51109;47.414;18.954;2023-07-30T01:03:22;4.95;;;2.40;;
64684;SDS011;51109;47.414;18.954;2023-07-30T01:05:48;3.25;;;2.17;;
64684;SDS011;51109;47.414;18.954;2023-07-30T01:08:14;5.22;;;2.22;;
64684;SDS011;51109;47.414;18.954;2023-07-30T01:10:40;4.20;;;1.90;;
64684;SDS011;51109;47.414;18.954;2023-07-30T01:13:07;2.10;;;1.90;;
64684;SDS011;51109;47.414;18.954;2023-07-30T01:15:34;5.82;;;2.10;;
64684;SDS011;51109;47.414;18.954;2023-07-30T01:18:01;3.08;;;2.30;;
64684;SDS011;51109;47.414;18.954;2023-07-30T01:20:29;4.65;;;2.38;;
64684;SDS011;51109;47.414;18.954;2023-07-30T01:22:57;2.25;;;1.90;;
64684;SDS011;51109;47.414;18.954;2023-07-30T01:25:24;3.58;;;2.30;;
64684;SDS011;51109;47.414;18.954;2023-07-30T01:27:54;2.72;;;2.22;;
64684;SDS011;51109;47.414;18.954;2023-07-30T01:30:32;2.17;;;1.95;;
64684;SDS011;51109;47.414;18.954;2023-07-30T01:33:03;2.30;;;2.05;;
64684;SDS011;51109;47.414;18.954;2023-07-30T01:35:30;3.63;;;2.25;;
64684;SDS011;51109;47.414;18.954;2023-07-30T01:37:57;3.10;;;2.05;;
64684;SDS011;51109;47.414;18.954;2023-07-30T01:40:23;2.63;;;2.20;;
64684;SDS011;51109;47.414;18.954;2023-07-30T01:42:50;2.30;;;2.10;;
64684;SDS011;51109;47.414;18.954;2023-07-30T01:45:16;2.95;;;2.05;;
64684;SDS011;51109;47.414;18.954;2023-07-30T01:47:42;4.22;;;2.50;;
64684;SDS011;51109;47.414;18.954;2023-07-30T01:50:08;2.97;;;2.20;;
64684;SDS011;51109;47.414;18.954;2023-07-30T01:52:34;7.60;;;2.67;;
64684;SDS011;51109;47.414;18.954;2023-07-30T01:55:00;2.20;;;2.00;;
64684;SDS011;51109;47.414;18.954;2023-07-30T01:57:26;3.15;;;2.35;;
64684;SDS011;51109;47.414;18.954;2023-07-30T01:59:52;4.72;;;2.05;;
64684;SDS011;51109;47.414;18.954;2023-07-30T02:02:18;3.38;;;2.28;;
64684;SDS011;51109;47.414;18.954;2023-07-30T02:04:44;3.85;;;2.38;;
64684;SDS011;51109;47.414;18.954;2023-07-30T02:07:10;2.35;;;2.17;;
64684;SDS011;51109;47.414;18.954;2023-07-30T02:09:36;2.15;;;1.92;;
64684;SDS011;51109;47.414;18.954;2023-07-30T02:12:02;2.88;;;2.15;;
64684;SDS011;51109;47.414;18.954;2023-07-30T02:14:28;2.45;;;1.95;;
64684;SDS011;51109;47.414;18.954;2023-07-30T02:16:54;2.10;;;1.83;;
64684;SDS011;51109;47.414;18.954;2023-07-30T02:19:20;2.55;;;1.92;;
64684;SDS011;51109;47.414;18.954;2023-07-30T02:21:46;3.15;;;2.85;;
64684;SDS011;51109;47.414;18.954;2023-07-30T02:24:12;4.20;;;2.17;;
64684;SDS011;51109;47.414;18.954;2023-07-30T02:26:38;4.18;;;2.40;;
64684;SDS011;51109;47.414;18.954;2023-07-30T02:29:04;2.80;;;1.90;;
64684;SDS011;51109;47.414;18.954;2023-07-30T02:31:30;2.20;;;1.88;;
64684;SDS011;51109;47.414;18.954;2023-07-30T02:33:57;2.85;;;1.90;;
64684;SDS011;51109;47.414;18.954;2023-07-30T02:36:23;2.08;;;1.88;;
64684;SDS011;51109;47.414;18.954;2023-07-30T02:38:50;2.30;;;2.10;;
64684;SDS011;51109;47.414;18.954;2023-07-30T02:41:16;2.13;;;1.80;;
64684;SDS011;51109;47.414;18.954;2023-07-30T02:43:42;2.30;;;2.10;;
64684;SDS011;51109;47.414;18.954;2023-07-30T02:46:08;2.58;;;1.90;;
64684;SDS011;51109;47.414;18.954;2023-07-30T02:48:34;2.25;;;2.03;;
64684;SDS011;51109;47.414;18.954;2023-07-30T02:51:00;2.78;;;1.92;;
64684;SDS011;51109;47.414;18.954;2023-07-30T02:53:26;3.78;;;2.30;;
64684;SDS011;51109;47.414;18.954;2023-07-30T02:55:52;4.35;;;2.28;;
64684;SDS011;51109;47.414;18.954;2023-07-30T02:58:18;2.35;;;1.92;;
64684;SDS011;51109;47.414;18.954;2023-07-30T03:03:12;2.83;;;2.13;;
64684;SDS011;51109;47.414;18.954;2023-07-30T03:05:41;3.55;;;2.13;;
64684;SDS011;51109;47.414;18.954;2023-07-30T03:08:08;2.65;;;2.10;;
64684;SDS011;51109;47.414;18.954;2023-07-30T03:10:33;4.40;;;2.28;;
64684;SDS011;51109;47.414;18.954;2023-07-30T03:13:03;2.38;;;2.17;;
64684;SDS011;51109;47.414;18.954;2023-07-30T03:15:29;2.33;;;1.98;;
64684;SDS011;51109;47.414;18.954;2023-07-30T03:17:55;3.40;;;2.10;;
64684;SDS011;51109;47.414;18.954;2023-07-30T03:20:21;2.53;;;2.13;;
64684;SDS011;51109;47.414;18.954;2023-07-30T03:22:47;2.67;;;2.10;;
64684;SDS011;51109;47.414;18.954;2023-07-30T03:25:13;2.60;;;2.20;;
64684;SDS011;51109;47.414;18.954;2023-07-30T03:27:39;2.38;;;2.17;;
64684;SDS011;51109;47.414;18.954;2023-07-30T03:30:05;2.75;;;2.22;;
64684;SDS011;51109;47.414;18.954;2023-07-30T03:32:32;2.28;;;2.00;;
64684;SDS011;51109;47.414;18.954;2023-07-30T03:34:58;2.25;;;1.70;;
64684;SDS011;51109;47.414;18.954;2023-07-30T03:37:24;2.58;;;2.05;;
64684;SDS011;51109;47.414;18.954;2023-07-30T03:39:49;3.58;;;2.03;;
64684;SDS011;51109;47.414;18.954;2023-07-30T03:42:15;2.55;;;2.30;;
64684;SDS011;51109;47.414;18.954;2023-07-30T03:44:41;2.40;;;2.20;;
64684;SDS011;51109;47.414;18.954;2023-07-30T03:47:07;3.53;;;2.13;;
64684;SDS011;51109;47.414;18.954;2023-07-30T03:49:33;2.58;;;1.92;;
64684;SDS011;51109;47.414;18.954;2023-07-30T03:51:59;2.70;;;2.10;;
64684;SDS011;51109;47.414;18.954;2023-07-30T03:54:25;4.05;;;2.20;;
64684;SDS011;51109;47.414;18.954;2023-07-30T03:56:51;3.22;;;2.05;;
64684;SDS011;51109;47.414;18.954;2023-07-30T03:59:17;2.25;;;2.05;;
64684;SDS011;51109;47.414;18.954;2023-07-30T04:01:43;2.35;;;2.15;;
64684;SDS011;51109;47.414;18.954;2023-07-30T04:04:08;3.35;;;2.25;;
64684;SDS011;51109;47.414;18.954;2023-07-30T04:06:34;2.47;;;2.20;;
64684;SDS011;51109;47.414;18.954;2023-07-30T04:09:00;3.47;;;2.45;;
64684;SDS011;51109;47.414;18.954;2023-07-30T04:11:26;3.92;;;2.17;;
64684;SDS011;51109;47.414;18.954;2023-07-30T04:13:52;2.20;;;2.00;;
64684;SDS011;51109;47.414;18.954;2023-07-30T04:16:18;2.45;;;2.05;;
64684;SDS011;51109;47.414;18.954;2023-07-30T04:18:44;2.35;;;2.15;;
64684;SDS011;51109;47.414;18.954;2023-07-30T04:21:10;2.50;;;2.30;;
64684;SDS011;51109;47.414;18.954;2023-07-30T04:23:36;2.95;;;2.13;;
64684;SDS011;51109;47.414;18.954;2023-07-30T04:26:02;3.55;;;2.30;;
64684;SDS011;51109;47.414;18.954;2023-07-30T04:28:28;2.50;;;2.30;;
64684;SDS011;51109;47.414;18.954;2023-07-30T04:30:54;2.13;;;1.92;;
64684;SDS011;51109;47.414;18.954;2023-07-30T04:33:20;4.28;;;2.92;;
64684;SDS011;51109;47.414;18.954;2023-07-30T04:35:45;5.15;;;2.42;;
64684;SDS011;51109;47.414;18.954;2023-07-30T04:38:11;2.85;;;2.40;;
64684;SDS011;51109;47.414;18.954;2023-07-30T04:40:38;4.05;;;2.58;;
64684;SDS011;51109;47.414;18.954;2023-07-30T04:43:04;4.05;;;2.40;;
64684;SDS011;51109;47.414;18.954;2023-07-30T04:45:30;2.85;;;2.40;;
64684;SDS011;51109;47.414;18.954;2023-07-30T04:47:56;3.65;;;2.33;;
64684;SDS011;51109;47.414;18.954;2023-07-30T04:50:22;2.63;;;2.05;;
64684;SDS011;51109;47.414;18.954;2023-07-30T04:52:48;3.13;;;2.10;;
64684;SDS011;51109;47.414;18.954;2023-07-30T04:55:14;3.30;;;2.50;;
64684;SDS011;51109;47.414;18.954;2023-07-30T04:57:40;2.47;;;2.28;;
64684;SDS011;51109;47.414;18.954;2023-07-30T05:00:06;3.38;;;2.65;;
64684;SDS011;51109;47.414;18.954;2023-07-30T05:02:33;2.90;;;2.58;;
64684;SDS011;51109;47.414;18.954;2023-07-30T05:05:01;2.70;;;2.50;;
64684;SDS011;51109;47.414;18.954;2023-07-30T05:07:27;3.83;;;2.60;;
64684;SDS011;51109;47.414;18.954;2023-07-30T05:09:53;2.97;;;2.30;;
64684;SDS011;51109;47.414;18.954;2023-07-30T05:12:19;2.53;;;2.33;;
64684;SDS011;51109;47.414;18.954;2023-07-30T05:14:45;2.97;;;2.50;;
64684;SDS011;51109;47.414;18.954;2023-07-30T05:17:11;2.30;;;2.10;;
64684;SDS011;51109;47.414;18.954;2023-07-30T05:19:36;3.38;;;2.30;;
64684;SDS011;51109;47.414;18.954;2023-07-30T05:22:02;3.70;;;2.70;;
64684;SDS011;51109;47.414;18.954;2023-07-30T05:24:30;4.15;;;2.58;;
64684;SDS011;51109;47.414;18.954;2023-07-30T05:26:56;2.80;;;2.50;;
64684;SDS011;51109;47.414;18.954;2023-07-30T05:29:22;3.15;;;2.47;;
64684;SDS011;51109;47.414;18.954;2023-07-30T05:31:48;2.30;;;2.10;;
64684;SDS011;51109;47.414;18.954;2023-07-30T05:34:14;2.95;;;2.50;;
64684;SDS011;51109;47.414;18.954;2023-07-30T05:36:40;2.85;;;2.10;;
64684;SDS011;51109;47.414;18.954;2023-07-30T05:39:06;2.47;;;2.28;;
64684;SDS011;51109;47.414;18.954;2023-07-30T05:41:32;3.50;;;2.17;;
64684;SDS011;51109;47.414;18.954;2023-07-30T05:43:57;2.77;;;2.30;;
64684;SDS011;51109;47.414;18.954;2023-07-30T05:46:23;2.60;;;2.40;;
64684;SDS011;51109;47.414;18.954;2023-07-30T05:48:49;4.25;;;2.65;;
64684;SDS011;51109;47.414;18.954;2023-07-30T05:51:15;3.88;;;2.50;;
64684;SDS011;51109;47.414;18.954;2023-07-30T05:53:41;3.00;;;2.40;;
64684;SDS011;51109;47.414;18.954;2023-07-30T05:56:07;2.33;;;2.13;;
64684;SDS011;51109;47.414;18.954;2023-07-30T05:58:33;2.72;;;2.28;;
64684;SDS011;51109;47.414;18.954;2023-07-30T06:00:59;2.53;;;1.90;;
64684;SDS011;51109;47.414;18.954;2023-07-30T06:03:25;2.42;;;2.15;;
64684;SDS011;51109;47.414;18.954;2023-07-30T06:05:51;2.92;;;2.38;;
64684;SDS011;51109;47.414;18.954;2023-07-30T06:08:17;2.72;;;2.45;;
64684;SDS011;51109;47.414;18.954;2023-07-30T06:10:43;2.72;;;2.30;;
64684;SDS011;51109;47.414;18.954;2023-07-30T06:13:09;3.78;;;2.40;;
64684;SDS011;51109;47.414;18.954;2023-07-30T06:15:35;2.30;;;2.10;;
64684;SDS011;51109;47.414;18.954;2023-07-30T06:18:01;2.72;;;2.42;;
64684;SDS011;51109;47.414;18.954;2023-07-30T06:20:28;2.97;;;2.40;;
64684;SDS011;51109;47.414;18.954;2023-07-30T06:22:55;3.83;;;2.20;;
64684;SDS011;51109;47.414;18.954;2023-07-30T06:25:21;2.63;;;2.03;;
64684;SDS011;51109;47.414;18.954;2023-07-30T06:27:47;4.00;;;2.67;;
64684;SDS011;51109;47.414;18.954;2023-07-30T06:30:13;3.95;;;2.50;;
64684;SDS011;51109;47.414;18.954;2023-07-30T06:32:39;2.30;;;2.10;;
64684;SDS011;51109;47.414;18.954;2023-07-30T06:35:05;4.85;;;2.17;;
64684;SDS011;51109;47.414;18.954;2023-07-30T06:37:31;3.08;;;2.30;;
64684;SDS011;51109;47.414;18.954;2023-07-30T06:39:58;2.55;;;2.03;;
64684;SDS011;51109;47.414;18.954;2023-07-30T06:42:24;3.35;;;2.10;;
64684;SDS011;51109;47.414;18.954;2023-07-30T06:44:49;2.63;;;2.28;;
64684;SDS011;51109;47.414;18.954;2023-07-30T06:47:15;3.35;;;2.25;;
64684;SDS011;51109;47.414;18.954;2023-07-30T06:49:41;4.90;;;2.60;;
64684;SDS011;51109;47.414;18.954;2023-07-30T06:52:07;2.78;;;2.55;;
64684;SDS011;51109;47.414;18.954;2023-07-30T06:54:33;2.60;;;2.40;;
64684;SDS011;51109;47.414;18.954;2023-07-30T06:56:59;2.65;;;2.45;;
64684;SDS011;51109;47.414;18.954;2023-07-30T06:59:25;2.78;;;2.15;;
64684;SDS011;51109;47.414;18.954;2023-07-30T07:01:51;2.60;;;2.40;;
64684;SDS011;51109;47.414;18.954;2023-07-30T07:04:17;3.28;;;2.35;;
64684;SDS011;51109;47.414;18.954;2023-07-30T07:06:44;2.47;;;2.13;;
64684;SDS011;51109;47.414;18.954;2023-07-30T07:09:10;4.55;;;2.53;;
64684;SDS011;51109;47.414;18.954;2023-07-30T07:11:36;2.67;;;2.45;;
64684;SDS011;51109;47.414;18.954;2023-07-30T07:14:02;4.53;;;2.72;;
64684;SDS011;51109;47.414;18.954;2023-07-30T07:16:28;3.05;;;2.80;;
64684;SDS011;51109;47.414;18.954;2023-07-30T07:18:55;3.95;;;2.63;;
64684;SDS011;51109;47.414;18.954;2023-07-30T07:21:20;4.68;;;2.45;;
64684;SDS011;51109;47.414;18.954;2023-07-30T07:23:47;3.63;;;2.70;;
64684;SDS011;51109;47.414;18.954;2023-07-30T07:26:12;3.20;;;2.45;;
64684;SDS011;51109;47.414;18.954;2023-07-30T07:28:38;4.05;;;2.53;;
64684;SDS011;51109;47.414;18.954;2023-07-30T07:31:04;3.92;;;2.95;;
64684;SDS011;51109;47.414;18.954;2023-07-30T07:33:30;4.80;;;2.83;;
64684;SDS011;51109;47.414;18.954;2023-07-30T07:36:06;3.03;;;2.72;;
64684;SDS011;51109;47.414;18.954;2023-07-30T07:38:33;4.22;;;2.92;;
64684;SDS011;51109;47.414;18.954;2023-07-30T07:41:00;3.72;;;2.95;;
64684;SDS011;51109;47.414;18.954;2023-07-30T07:43:27;4.70;;;3.20;;
64684;SDS011;51109;47.414;18.954;2023-07-30T07:45:53;5.13;;;3.25;;
64684;SDS011;51109;47.414;18.954;2023-07-30T07:48:19;4.32;;;2.83;;
64684;SDS011;51109;47.414;18.954;2023-07-30T07:50:45;3.20;;;2.75;;
64684;SDS011;51109;47.414;18.954;2023-07-30T07:53:11;2.85;;;2.60;;
64684;SDS011;51109;47.414;18.954;2023-07-30T07:55:37;2.70;;;2.47;;
64684;SDS011;51109;47.414;18.954;2023-07-30T07:58:03;3.50;;;2.85;;
64684;SDS011;51109;47.414;18.954;2023-07-30T08:00:29;3.10;;;2.80;;
64684;SDS011;51109;47.414;18.954;2023-07-30T08:02:55;3.90;;;2.75;;
64684;SDS011;51109;47.414;18.954;2023-07-30T08:05:21;3.13;;;2.63;;
64684;SDS011;51109;47.414;18.954;2023-07-30T08:07:47;3.25;;;2.88;;
64684;SDS011;51109;47.414;18.954;2023-07-30T08:10:13;4.55;;;3.00;;
64684;SDS011;51109;47.414;18.954;2023-07-30T08:12:39;3.50;;;3.08;;
64684;SDS011;51109;47.414;18.954;2023-07-30T08:15:05;4.35;;;3.20;;
64684;SDS011;51109;47.414;18.954;2023-07-30T08:17:31;4.53;;;3.35;;
64684;SDS011;51109;47.414;18.954;2023-07-30T08:19:57;4.28;;;3.63;;
64684;SDS011;51109;47.414;18.954;2023-07-30T08:22:23;6.10;;;3.42;;
64684;SDS011;51109;47.414;18.954;2023-07-30T08:24:49;5.18;;;3.70;;
64684;SDS011;51109;47.414;18.954;2023-07-30T08:27:15;7.47;;;3.83;;
64684;SDS011;51109;47.414;18.954;2023-07-30T08:29:41;9.90;;;4.20;;
64684;SDS011;51109;47.414;18.954;2023-07-30T08:32:07;10.75;;;4.35;;
64684;SDS011;51109;47.414;18.954;2023-07-30T08:34:36;7.60;;;4.05;;
64684;SDS011;51109;47.414;18.954;2023-07-30T08:37:02;11.02;;;4.80;;
64684;SDS011;51109;47.414;18.954;2023-07-30T08:39:28;9.55;;;5.00;;
64684;SDS011;51109;47.414;18.954;2023-07-30T08:41:54;14.57;;;5.35;;
64684;SDS011;51109;47.414;18.954;2023-07-30T08:44:20;12.27;;;5.22;;
64684;SDS011;51109;47.414;18.954;2023-07-30T08:46:45;14.27;;;6.65;;
64684;SDS011;51109;47.414;18.954;2023-07-30T08:49:11;11.10;;;5.53;;
64684;SDS011;51109;47.414;18.954;2023-07-30T08:51:37;9.40;;;5.25;;
64684;SDS011;51109;47.414;18.954;2023-07-30T08:54:06;11.23;;;5.72;;
64684;SDS011;51109;47.414;18.954;2023-07-30T08:56:33;11.77;;;5.05;;
64684;SDS011;51109;47.414;18.954;2023-07-30T08:58:59;6.82;;;4.53;;
64684;SDS011;51109;47.414;18.954;2023-07-30T09:01:29;9.68;;;4.22;;
64684;SDS011;51109;47.414;18.954;2023-07-30T09:04:00;7.13;;;4.13;;
64684;SDS011;51109;47.414;18.954;2023-07-30T09:06:26;13.30;;;5.10;;
64684;SDS011;51109;47.414;18.954;2023-07-30T09:08:52;8.88;;;4.70;;
64684;SDS011;51109;47.414;18.954;2023-07-30T09:11:18;11.80;;;5.10;;
64684;SDS011;51109;47.414;18.954;2023-07-30T09:13:46;13.18;;;4.15;;
64684;SDS011;51109;47.414;18.954;2023-07-30T09:16:12;9.63;;;4.03;;
64684;SDS011;51109;47.414;18.954;2023-07-30T09:18:43;8.30;;;3.45;;
64684;SDS011;51109;47.414;18.954;2023-07-30T09:21:13;5.32;;;2.92;;
64684;SDS011;51109;47.414;18.954;2023-07-30T09:23:40;4.55;;;2.92;;
64684;SDS011;51109;47.414;18.954;2023-07-30T09:26:07;3.75;;;3.03;;
64684;SDS011;51109;47.414;18.954;2023-07-30T09:28:33;5.13;;;3.28;;
64684;SDS011;51109;47.414;18.954;2023-07-30T09:31:03;5.43;;;2.80;;
64684;SDS011;51109;47.414;18.954;2023-07-30T09:33:31;6.28;;;3.08;;
64684;SDS011;51109;47.414;18.954;2023-07-30T09:35:58;4.97;;;3.40;;
64684;SDS011;51109;47.414;18.954;2023-07-30T09:38:27;3.10;;;2.70;;
64684;SDS011;51109;47.414;18.954;2023-07-30T09:41:02;5.43;;;3.22;;
64684;SDS011;51109;47.414;18.954;2023-07-30T09:43:29;5.30;;;3.45;;
64684;SDS011;51109;47.414;18.954;2023-07-30T09:46:01;3.85;;;3.13;;
64684;SDS011;51109;47.414;18.954;2023-07-30T09:48:29;4.07;;;3.03;;
64684;SDS011;51109;47.414;18.954;2023-07-30T09:51:00;4.97;;;3.22;;
64684;SDS011;51109;47.414;18.954;2023-07-30T09:53:30;6.63;;;3.60;;
64684;SDS011;51109;47.414;18.954;2023-07-30T09:56:03;3.65;;;3.03;;
64684;SDS011;51109;47.414;18.954;2023-07-30T09:58:30;4.80;;;2.90;;
64684;SDS011;51109;47.414;18.954;2023-07-30T10:00:58;3.20;;;2.90;;
64684;SDS011;51109;47.414;18.954;2023-07-30T10:03:26;5.50;;;3.20;;
64684;SDS011;51109;47.414;18.954;2023-07-30T10:05:59;3.50;;;2.90;;
64684;SDS011;51109;47.414;18.954;2023-07-30T10:08:28;6.47;;;3.20;;
64684;SDS011;51109;47.414;18.954;2023-07-30T10:10:57;4.78;;;2.60;;
64684;SDS011;51109;47.414;18.954;2023-07-30T10:13:25;4.65;;;2.90;;
64684;SDS011;51109;47.414;18.954;2023-07-30T10:15:52;4.28;;;3.13;;
64684;SDS011;51109;47.414;18.954;2023-07-30T10:18:18;4.13;;;3.10;;
64684;SDS011;51109;47.414;18.954;2023-07-30T10:20:53;4.03;;;2.75;;
64684;SDS011;51109;47.414;18.954;2023-07-30T10:23:20;4.10;;;2.90;;
64684;SDS011;51109;47.414;18.954;2023-07-30T10:25:47;6.55;;;3.35;;
64684;SDS011;51109;47.414;18.954;2023-07-30T10:30:56;5.03;;;3.28;;
64684;SDS011;51109;47.414;18.954;2023-07-30T10:33:23;5.35;;;4.25;;
64684;SDS011;51109;47.414;18.954;2023-07-30T10:36:08;5.78;;;3.70;;
64684;SDS011;51109;47.414;18.954;2023-07-30T10:38:35;3.95;;;3.15;;
64684;SDS011;51109;47.414;18.954;2023-07-30T10:41:14;4.75;;;3.92;;
64684;SDS011;51109;47.414;18.954;2023-07-30T10:43:48;5.47;;;4.30;;
64684;SDS011;51109;47.414;18.954;2023-07-30T10:46:16;4.88;;;4.15;;
64684;SDS011;51109;47.414;18.954;2023-07-30T10:48:43;8.18;;;4.30;;
64684;SDS011;51109;47.414;18.954;2023-07-30T10:51:11;4.28;;;3.42;;
64684;SDS011;51109;47.414;18.954;2023-07-30T10:53:42;4.03;;;3.13;;
64684;SDS011;51109;47.414;18.954;2023-07-30T10:56:10;3.17;;;2.85;;
64684;SDS011;51109;47.414;18.954;2023-07-30T10:58:37;3.28;;;2.90;;
64684;SDS011;51109;47.414;18.954;2023-07-30T11:01:04;3.97;;;3.17;;
64684;SDS011;51109;47.414;18.954;2023-07-30T11:03:32;5.05;;;3.53;;
64684;SDS011;51109;47.414;18.954;2023-07-30T11:05:58;3.13;;;2.83;;
64684;SDS011;51109;47.414;18.954;2023-07-30T11:08:35;4.10;;;3.50;;
64684;SDS011;51109;47.414;18.954;2023-07-30T11:11:03;3.45;;;3.15;;
64684;SDS011;51109;47.414;18.954;2023-07-30T11:13:34;3.97;;;3.35;;
64684;SDS011;51109;47.414;18.954;2023-07-30T11:16:05;5.60;;;3.42;;
64684;SDS011;51109;47.414;18.954;2023-07-30T11:18:35;5.03;;;3.83;;
64684;SDS011;51109;47.414;18.954;2023-07-30T11:21:03;4.13;;;3.72;;
64684;SDS011;51109;47.414;18.954;2023-07-30T11:23:33;5.38;;;3.60;;
64684;SDS011;51109;47.414;18.954;2023-07-30T11:26:03;4.28;;;3.88;;
64684;SDS011;51109;47.414;18.954;2023-07-30T11:28:36;5.60;;;3.85;;
64684;SDS011;51109;47.414;18.954;2023-07-30T11:31:05;4.38;;;3.97;;
64684;SDS011;51109;47.414;18.954;2023-07-30T11:33:33;5.45;;;4.10;;
64684;SDS011;51109;47.414;18.954;2023-07-30T11:36:02;4.22;;;3.78;;
64684;SDS011;51109;47.414;18.954;2023-07-30T11:38:29;4.00;;;3.70;;
64684;SDS011;51109;47.414;18.954;2023-07-30T11:40:57;6.47;;;4.20;;
64684;SDS011;51109;47.414;18.954;2023-07-30T11:43:23;4.25;;;3.60;;
64684;SDS011;51109;47.414;18.954;2023-07-30T11:46:03;4.97;;;3.70;;
64684;SDS011;51109;47.414;18.954;2023-07-30T11:48:35;5.13;;;3.85;;
64684;SDS011;51109;47.414;18.954;2023-07-30T11:51:02;4.55;;;3.28;;
64684;SDS011;51109;47.414;18.954;2023-07-30T11:56:25;3.97;;;3.33;;
64684;SDS011;51109;47.414;18.954;2023-07-30T11:59:06;4.88;;;4.30;;
64684;SDS011;51109;47.414;18.954;2023-07-30T12:01:33;3.65;;;3.17;;
64684;SDS011;51109;47.414;18.954;2023-07-30T12:04:02;5.05;;;3.15;;
64684;SDS011;51109;47.414;18.954;2023-07-30T12:09:10;4.93;;;3.70;;
64684;SDS011;51109;47.414;18.954;2023-07-30T12:14:15;5.18;;;3.55;;
64684;SDS011;51109;47.414;18.954;2023-07-30T12:16:42;4.20;;;3.17;;
64684;SDS011;51109;47.414;18.954;2023-07-30T12:19:08;2.78;;;2.58;;
64684;SDS011;51109;47.414;18.954;2023-07-30T12:21:34;3.80;;;2.40;;
64684;SDS011;51109;47.414;18.954;2023-07-30T12:24:01;2.78;;;2.53;;
64684;SDS011;51109;47.414;18.954;2023-07-30T12:26:28;4.03;;;2.65;;
64684;SDS011;51109;47.414;18.954;2023-07-30T12:28:55;2.42;;;2.22;;
64684;SDS011;51109;47.414;18.954;2023-07-30T12:31:20;3.15;;;2.03;;
64684;SDS011;51109;47.414;18.954;2023-07-30T12:33:46;3.17;;;2.40;;
64684;SDS011;51109;47.414;18.954;2023-07-30T12:36:12;2.80;;;2.38;;
64684;SDS011;51109;47.414;18.954;2023-07-30T12:38:38;4.80;;;2.42;;
64684;SDS011;51109;47.414;18.954;2023-07-30T12:41:05;2.72;;;2.30;;
64684;SDS011;51109;47.414;18.954;2023-07-30T12:43:31;2.33;;;2.13;;
64684;SDS011;51109;47.414;18.954;2023-07-30T12:45:57;3.63;;;2.33;;
64684;SDS011;51109;47.414;18.954;2023-07-30T12:48:23;2.88;;;2.05;;
64684;SDS011;51109;47.414;18.954;2023-07-30T12:50:48;2.85;;;2.22;;
64684;SDS011;51109;47.414;18.954;2023-07-30T12:53:15;2.58;;;2.38;;
64684;SDS011;51109;47.414;18.954;2023-07-30T12:55:41;2.25;;;2.05;;
64684;SDS011;51109;47.414;18.954;2023-07-30T12:58:07;3.95;;;2.58;;
64684;SDS011;51109;47.414;18.954;2023-07-30T13:00:33;2.25;;;2.00;;
64684;SDS011;51109;47.414;18.954;2023-07-30T13:03:00;4.18;;;2.42;;
64684;SDS011;51109;47.414;18.954;2023-07-30T13:05:27;2.78;;;1.85;;
64684;SDS011;51109;47.414;18.954;2023-07-30T13:07:53;3.38;;;2.30;;
64684;SDS011;51109;47.414;18.954;2023-07-30T13:10:19;2.17;;;1.98;;
64684;SDS011;51109;47.414;18.954;2023-07-30T13:12:45;3.17;;;1.88;;
64684;SDS011;51109;47.414;18.954;2023-07-30T13:15:11;2.40;;;1.88;;
64684;SDS011;51109;47.414;18.954;2023-07-30T13:17:38;1.92;;;1.75;;
64684;SDS011;51109;47.414;18.954;2023-07-30T13:20:04;2.72;;;1.63;;
64684;SDS011;51109;47.414;18.954;2023-07-30T13:22:31;3.17;;;1.83;;
64684;SDS011;51109;47.414;18.954;2023-07-30T13:24:57;1.80;;;1.70;;
64684;SDS011;51109;47.414;18.954;2023-07-30T13:27:23;2.40;;;2.17;;
64684;SDS011;51109;47.414;18.954;2023-07-30T13:29:49;2.03;;;1.92;;
64684;SDS011;51109;47.414;18.954;2023-07-30T13:32:15;2.83;;;1.98;;
64684;SDS011;51109;47.414;18.954;2023-07-30T13:34:41;1.98;;;1.80;;
64684;SDS011;51109;47.414;18.954;2023-07-30T13:37:07;3.45;;;2.05;;
64684;SDS011;51109;47.414;18.954;2023-07-30T13:39:33;2.95;;;1.98;;
64684;SDS011;51109;47.414;18.954;2023-07-30T13:41:59;2.28;;;2.08;;
64684;SDS011;51109;47.414;18.954;2023-07-30T13:44:25;2.88;;;2.53;;
64684;SDS011;51109;47.414;18.954;2023-07-30T13:46:51;5.05;;;2.10;;
64684;SDS011;51109;47.414;18.954;2023-07-30T13:49:17;5.53;;;2.25;;
64684;SDS011;51109;47.414;18.954;2023-07-30T13:51:43;2.50;;;2.30;;
64684;SDS011;51109;47.414;18.954;2023-07-30T13:54:09;1.83;;;1.73;;
64684;SDS011;51109;47.414;18.954;2023-07-30T13:56:35;2.40;;;2.20;;
64684;SDS011;51109;47.414;18.954;2023-07-30T13:59:03;3.17;;;2.10;;
64684;SDS011;51109;47.414;18.954;2023-07-30T14:01:30;2.50;;;2.05;;
64684;SDS011;51109;47.414;18.954;2023-07-30T14:03:56;1.85;;;1.73;;
64684;SDS011;51109;47.414;18.954;2023-07-30T14:06:22;2.53;;;2.30;;
64684;SDS011;51109;47.414;18.954;2023-07-30T14:08:48;2.22;;;2.03;;
64684;SDS011;51109;47.414;18.954;2023-07-30T14:11:14;3.00;;;1.90;;
64684;SDS011;51109;47.414;18.954;2023-07-30T14:13:40;2.30;;;2.00;;
64684;SDS011;51109;47.414;18.954;2023-07-30T14:16:06;3.53;;;2.30;;
64684;SDS011;51109;47.414;18.954;2023-07-30T14:18:32;2.60;;;2.00;;
64684;SDS011;51109;47.414;18.954;2023-07-30T14:20:58;1.95;;;1.85;;
64684;SDS011;51109;47.414;18.954;2023-07-30T14:23:24;2.95;;;1.83;;
64684;SDS011;51109;47.414;18.954;2023-07-30T14:25:50;1.98;;;1.88;;
64684;SDS011;51109;47.414;18.954;2023-07-30T14:28:16;2.47;;;2.10;;
64684;SDS011;51109;47.414;18.954;2023-07-30T14:30:42;2.08;;;1.67;;
64684;SDS011;51109;47.414;18.954;2023-07-30T14:33:10;2.03;;;1.63;;
64684;SDS011;51109;47.414;18.954;2023-07-30T14:35:36;2.20;;;2.00;;
64684;SDS011;51109;47.414;18.954;2023-07-30T14:38:03;2.10;;;1.90;;
64684;SDS011;51109;47.414;18.954;2023-07-30T14:40:30;1.95;;;1.50;;
64684;SDS011;51109;47.414;18.954;2023-07-30T14:42:56;1.70;;;1.60;;
64684;SDS011;51109;47.414;18.954;2023-07-30T14:45:22;3.60;;;2.13;;